Terminal Aerodrome Forecast
Issued by NWS

Home | Current Version | Previous Version | Text Only | Print | Product List | Glossary On
Versions: 1 2 3 4 5 6 7 8 9 10 11 12 13 14 15 16 17 18 19
000
FTPQ31 PGUM 302300
TAFTNI
TAF
PGWT 302333Z 0100/0124 20020G28KT P6SM VCSH SCT015 BKN040 BKN100
      TEMPO 0100/0102 5SM RA BR BKN015
     FM011000 20012G20KT P6SM VCSH SCT025 SCT040 BKN100=

USA.gov is the U.S. government's official web portal to all federal, state and local government web resources and services.